createdAt,value
2024-01-09T00:00:01.735Z,88.75
2024-01-09T00:05:04.512Z,88.11
2024-01-09T00:10:08.640Z,88.21
2024-01-09T00:15:11.018Z,88.09
2024-01-09T00:20:13.288Z,88.11
2024-01-09T00:25:19.064Z,88.33
2024-01-09T00:30:21.209Z,88.07
2024-01-09T00:35:23.282Z,87.98
2024-01-09T00:40:25.373Z,87.76
2024-01-09T00:45:27.527Z,88.30
2024-01-09T00:50:29.502Z,88.31
2024-01-09T00:55:31.594Z,88.07
2024-01-09T01:00:33.512Z,87.74
2024-01-09T01:05:35.916Z,87.96
2024-01-09T01:10:38.134Z,87.98
2024-01-09T01:15:40.119Z,88.17
2024-01-09T01:20:42.091Z,88.65
2024-01-09T01:25:44.178Z,88.74
2024-01-09T01:30:46.217Z,88.45
2024-01-09T01:35:48.208Z,88.05
2024-01-09T01:40:50.364Z,88.20
2024-01-09T01:45:52.332Z,88.33
2024-01-09T01:50:54.506Z,88.31
2024-01-09T01:55:57.005Z,88.47
2024-01-09T02:01:01.100Z,88.22
2024-01-09T02:06:04.294Z,88.65
2024-01-09T02:11:06.570Z,88.44
2024-01-09T02:16:08.573Z,88.22
2024-01-09T02:21:10.438Z,88.45
2024-01-09T02:26:33.239Z,88.75
2024-01-09T02:31:37.479Z,88.80
2024-01-09T02:36:39.501Z,88.38
2024-01-09T02:41:41.664Z,88.92
2024-01-09T02:46:43.629Z,88.63
2024-01-09T02:51:45.608Z,88.69
2024-01-09T02:56:47.687Z,89.10
2024-01-09T03:01:49.700Z,88.77
2024-01-09T03:06:51.891Z,88.76
2024-01-09T03:11:54.465Z,89.11
2024-01-09T03:16:56.512Z,88.82
2024-01-09T03:21:58.537Z,88.90
2024-01-09T03:27:00.748Z,89.02
2024-01-09T03:32:02.791Z,89.19
2024-01-09T03:37:07.258Z,88.91
2024-01-09T03:42:09.236Z,88.85
2024-01-09T03:47:11.276Z,88.66
2024-01-09T03:52:13.360Z,88.72
2024-01-09T03:57:16.164Z,88.60
2024-01-09T04:02:19.380Z,88.63
2024-01-09T04:07:21.401Z,88.59
2024-01-09T04:12:23.335Z,88.62
2024-01-09T04:17:25.419Z,88.64
2024-01-09T04:22:27.429Z,88.92
2024-01-09T04:27:29.479Z,89.30
2024-01-09T04:32:31.525Z,88.74
2024-01-09T04:37:33.606Z,88.96
2024-01-09T04:42:35.688Z,89.11
2024-01-09T04:47:37.784Z,89.33
2024-01-09T04:52:39.833Z,89.94
2024-01-09T04:57:41.884Z,89.53
2024-01-09T05:02:44.022Z,89.52
2024-01-09T05:07:47.346Z,89.49
2024-01-09T05:12:49.367Z,89.73
2024-01-09T05:17:51.541Z,90.07
2024-01-09T05:22:53.566Z,90.37
2024-01-09T05:27:56.439Z,89.81
2024-01-09T05:32:58.709Z,89.68
2024-01-09T05:38:08.072Z,89.66
2024-01-09T05:43:17.138Z,89.49
2024-01-09T05:48:19.450Z,89.32
2024-01-09T05:53:21.798Z,89.41
2024-01-09T05:58:24.140Z,89.64
2024-01-09T06:03:26.271Z,90.17
2024-01-09T06:08:28.424Z,90.31
2024-01-09T06:13:30.669Z,90.51
2024-01-09T06:18:32.926Z,90.32
2024-01-09T06:23:35.381Z,90.23
2024-01-09T06:28:38.001Z,90.65
2024-01-09T06:33:40.273Z,90.82
2024-01-09T06:38:42.510Z,90.98
2024-01-09T06:43:44.829Z,90.76
2024-01-09T06:48:47.086Z,90.86
2024-01-09T06:53:49.352Z,90.94
2024-01-09T06:58:54.099Z,90.58
2024-01-09T07:03:56.669Z,91.05
2024-01-09T07:08:59.037Z,91.25
2024-01-09T07:14:01.319Z,90.37
2024-01-09T07:19:03.985Z,89.85
2024-01-09T07:24:06.145Z,89.69
2024-01-09T07:29:08.238Z,89.19
2024-01-09T07:34:10.503Z,89.26
2024-01-09T07:39:12.994Z,89.41
2024-01-09T07:44:15.137Z,89.76
2024-01-09T07:49:17.818Z,89.75
2024-01-09T07:54:19.947Z,89.87
2024-01-09T07:59:22.267Z,89.55
2024-01-09T08:04:24.757Z,89.17
2024-01-09T08:09:27.075Z,89.37
2024-01-09T08:14:29.288Z,90.49
2024-01-09T08:20:21.954Z,91.40
2024-01-09T08:25:24.590Z,91.74
2024-01-09T08:30:27.014Z,91.82
2024-01-09T08:35:34.806Z,90.81
2024-01-09T08:40:51.529Z,89.84
2024-01-09T08:46:07.777Z,91.48
2024-01-09T08:51:35.633Z,91.02
2024-01-09T08:56:50.810Z,91.23
2024-01-09T09:02:35.523Z,90.50
2024-01-09T09:08:11.141Z,90.43
2024-01-09T09:13:43.599Z,90.80
2024-01-09T09:18:52.006Z,91.63
2024-01-09T09:24:27.048Z,91.67
2024-01-09T09:29:52.097Z,91.25
2024-01-09T09:35:37.444Z,90.12
2024-01-09T09:41:29.008Z,91.12
2024-01-09T09:47:31.717Z,90.53
2024-01-09T09:53:34.679Z,90.83
2024-01-09T09:59:37.502Z,90.12
2024-01-09T10:05:44.769Z,90.68
2024-01-09T10:11:33.303Z,90.90
2024-01-09T10:17:38.717Z,89.11
2024-01-09T10:23:34.397Z,89.61
2024-01-09T10:29:07.612Z,90.31
2024-01-09T10:34:21.774Z,91.40
2024-01-09T10:40:07.532Z,90.72
2024-01-09T10:45:54.152Z,91.57
2024-01-09T10:51:21.413Z,89.78
2024-01-09T10:57:07.615Z,88.08
2024-01-09T11:03:10.360Z,88.65
2024-01-09T11:08:49.984Z,87.33
2024-01-09T11:14:50.003Z,88.28
2024-01-09T11:26:03.092Z,87.18
2024-01-09T11:31:08.763Z,86.78
2024-01-09T11:36:16.450Z,89.31
2024-01-09T11:41:18.991Z,90.25
2024-01-09T11:46:39.746Z,89.53
2024-01-09T11:52:04.403Z,89.95
2024-01-09T11:57:10.335Z,90.94
2024-01-09T12:02:35.245Z,90.47
2024-01-09T12:08:01.869Z,90.75
2024-01-09T12:13:07.848Z,90.37
2024-01-09T12:18:13.611Z,90.69
2024-01-09T12:23:38.227Z,91.14
2024-01-09T12:29:30.407Z,90.42
2024-01-09T12:35:08.962Z,90.17
2024-01-09T12:40:55.176Z,90.82
2024-01-09T12:46:49.469Z,90.15
2024-01-09T12:52:38.396Z,89.72
2024-01-09T12:58:21.324Z,90.47
2024-01-09T13:03:56.820Z,90.68
2024-01-09T13:09:28.481Z,89.69
2024-01-09T13:14:38.764Z,91.19
2024-01-09T13:19:40.975Z,90.46
2024-01-09T13:25:06.527Z,91.12
2024-01-09T13:35:30.663Z,90.47
2024-01-09T13:40:36.861Z,92.05
2024-01-09T13:46:29.905Z,90.87
2024-01-09T13:52:32.696Z,89.47
2024-01-09T13:58:36.375Z,89.73
2024-01-09T14:04:10.354Z,91.99
2024-01-09T14:09:41.733Z,92.26
2024-01-09T14:25:50.308Z,90.84
2024-01-09T14:30:52.758Z,90.92
2024-01-09T14:36:15.542Z,89.76
2024-01-09T14:41:32.365Z,91.01
2024-01-09T14:47:35.088Z,91.97
2024-01-09T14:52:51.137Z,93.04
2024-01-09T14:57:53.597Z,93.64
2024-01-09T15:03:27.157Z,94.66
2024-01-09T15:09:09.957Z,94.96
2024-01-09T15:14:53.700Z,94.66
2024-01-09T15:20:31.494Z,95.31
2024-01-09T15:26:22.988Z,95.80
2024-01-09T15:31:51.103Z,95.91
2024-01-09T15:37:44.133Z,96.13
2024-01-09T15:43:19.053Z,95.60
2024-01-09T15:48:54.223Z,95.88
2024-01-09T15:54:05.008Z,95.58
2024-01-09T16:00:07.711Z,95.71
2024-01-09T16:05:55.522Z,96.43
2024-01-09T16:11:33.051Z,96.69
2024-01-09T16:17:09.590Z,96.53
2024-01-09T16:23:12.461Z,96.41
2024-01-09T16:29:02.257Z,95.65
2024-01-09T16:34:51.677Z,96.35
2024-01-09T16:46:02.417Z,96.12
2024-01-09T16:52:08.150Z,96.01
2024-01-09T16:58:09.654Z,95.48
2024-01-09T17:04:05.005Z,95.35
2024-01-09T17:09:47.587Z,94.84
2024-01-09T17:15:30.169Z,93.85
2024-01-09T17:21:34.928Z,94.35
2024-01-09T17:27:36.706Z,93.97
2024-01-09T17:33:39.556Z,94.09
2024-01-09T17:39:43.377Z,93.78
2024-01-09T17:45:20.053Z,94.42
2024-01-09T17:50:54.657Z,92.64
2024-01-09T17:56:19.570Z,92.43
2024-01-09T18:02:26.684Z,92.46
2024-01-09T18:07:51.744Z,92.30
2024-01-09T18:13:03.028Z,93.04
2024-01-09T18:19:04.779Z,93.50
2024-01-09T18:24:16.308Z,93.57
2024-01-09T18:30:08.951Z,93.37
2024-01-09T18:36:11.785Z,92.83
2024-01-09T18:41:23.727Z,92.99
2024-01-09T18:46:46.715Z,93.24
2024-01-09T18:52:39.841Z,93.81
2024-01-09T18:58:41.582Z,94.35
2024-01-09T19:10:53.505Z,95.09
2024-01-09T19:16:56.321Z,95.11
2024-01-09T19:22:32.474Z,95.39
2024-01-09T19:28:26.684Z,95.43
2024-01-09T19:34:12.905Z,95.77
2024-01-09T19:40:16.843Z,96.37
2024-01-09T19:52:05.464Z,97.21
2024-01-09T19:57:41.504Z,97.53
2024-01-09T20:03:35.167Z,97.56
2024-01-09T20:09:38.050Z,97.65
2024-01-09T20:21:25.586Z,98.22
2024-01-09T20:27:32.280Z,98.54
2024-01-09T23:29:21.097Z,100.00
2024-01-09T23:35:22.047Z,100.00
2024-01-09T23:41:26.220Z,100.00
